Aplicació Alertes

Dades de l'estació automàtica el Pont de Suert

?
?
Resum diari 22:30 TU
Dades diàries de l'estació meteorològica
Temperatura mitjana -0.1 °C
Temperatura màxima 9.5 °C 14:25 TU
Temperatura mínima -5.5 °C 4:05 TU
Humitat relativa mitjana 63%
Precipitació acumulada 0.0 mm
Ratxa màxima del vent (10 m) 23.4 km/h - 145º 13:12 TU
Pressió atmosfèrica mitjana 1029.4 hPa
Irradiació solar global 5.8 MJ/m2

El tram horari està expressat en Temps Universal (TU). Cal sumar una hora en horari d'hivern i dues en horari d'estiu per passar a l'hora oficial.

el Pont de Suert

Metadades estació meteorol´gica
Municipi El Pont de Suert
Comarca Alta Ribagorça
Altitud 823 m
Data alta 14.02.1996
Estat actual Operativa
Dades de període
Període
TU
TM
°C
TX
°C
TN
°C
HRM
%
PPT
mm
VVM (10 m)
km/h
DVM (10 m)
graus
VVX (10 m)
km/h
PM
hPa
RS
W/m2
00:00 - 00:30 -0.9 -0.1 -1.6 57 0.0 4.3 9 17.3 1027.1 0
00:30 - 01:00 -2.3 -1.7 -3.0 64 0.0 2.2 25 9.0 1027.7 0
01:00 - 01:30 -3.2 -2.6 -3.7 70 0.0 4.0 344 9.7 1027.9 0
01:30 - 02:00 -3.7 -2.6 -4.4 72 0.0 1.8 23 7.9 1028.3 0
02:00 - 02:30 -4.5 -4.1 -5.0 76 0.0 1.8 55 6.5 1028.8 0
02:30 - 03:00 -4.8 -4.6 -5.3 78 0.0 2.2 26 8.3 1029.0 0
03:00 - 03:30 -5.1 -4.8 -5.4 79 0.0 3.6 2 9.0 1029.3 0
03:30 - 04:00 -5.0 -4.9 -5.1 78 0.0 3.2 91 7.9 1029.4 0
04:00 - 04:30 -5.1 -4.3 -5.5 78 0.0 2.9 135 12.6 1029.5 0
04:30 - 05:00 -4.4 -3.9 -4.7 73 0.0 4.0 115 15.1 1029.0 0
05:00 - 05:30 -4.6 -4.3 -4.8 75 0.0 2.5 131 6.1 1029.0 0
05:30 - 06:00 -4.8 -4.6 -5.1 78 0.0 3.2 134 7.6 1029.4 0
06:00 - 06:30 -4.8 -4.3 -5.1 77 0.0 4.3 22 10.4 1029.6 0
06:30 - 07:00 -4.2 -4.0 -4.5 73 0.0 3.6 139 9.4 1029.6 0
07:00 - 07:30 -4.0 -3.5 -4.4 72 0.0 3.6 126 12.6 1029.9 1
07:30 - 08:00 -3.9 -3.4 -4.4 72 0.0 5.0 135 13.3 1030.1 10
08:00 - 08:30 -3.1 -2.6 -3.6 68 0.0 5.0 122 14.0 1030.1 19
08:30 - 09:00 -3.2 -2.5 -3.4 70 0.0 3.6 139 9.4 1030.6 35
09:00 - 09:30 -1.9 -0.5 -2.6 66 0.0 4.0 137 7.9 1030.5 159
09:30 - 10:00 0.4 0.9 -0.7 58 0.0 3.2 154 7.2 1030.0 206
10:00 - 10:30 2.4 3.2 1.0 49 0.0 4.7 136 7.6 1029.6 286
10:30 - 11:00 4.9 6.3 3.3 43 0.0 1.1 169 4.0 1028.5 281
11:00 - 11:30 4.4 6.1 3.5 46 0.0 0.7 29 3.2 1028.3 230
11:30 - 12:00 6.0 8.7 4.2 44 0.0 1.1 170 6.8 1027.4 330
12:00 - 12:30 8.5 9.1 8.0 32 0.0 6.1 164 14.8 1026.1 436
12:30 - 13:00 7.2 8.3 6.1 34 0.0 9.7 145 23.0 1026.3 214
13:00 - 13:30 6.1 7.2 5.8 34 0.0 10.8 143 23.4 1026.7 235
13:30 - 14:00 7.1 7.3 6.9 31 0.0 7.2 143 15.8 1026.4 219
14:00 - 14:30 8.2 9.5 7.2 29 0.0 4.7 178 11.2 1026.1 312
14:30 - 15:00 8.0 8.5 7.1 30 0.0 2.9 171 10.1 1026.4 181
15:00 - 15:30 7.0 7.1 6.8 36 0.0 5.0 341 15.5 1026.8 66
15:30 - 16:00 5.8 6.8 4.8 42 0.0 4.7 342 13.7 1027.6 26
16:00 - 16:30 3.4 4.7 2.1 53 0.0 1.1 83 5.4 1028.8 10
16:30 - 17:00 1.2 2.0 0.5 63 0.0 1.4 26 5.4 1029.8 0
17:00 - 17:30 0.1 0.7 -0.2 70 0.0 1.8 63 6.1 1030.4 0
17:30 - 18:00 0.2 0.8 -0.2 68 0.0 4.0 24 9.0 1030.5 0
18:00 - 18:30 -0.4 0.1 -0.6 70 0.0 2.9 13 9.4 1031.0 0
18:30 - 19:00 -0.2 0.3 -0.6 71 0.0 3.2 343 9.0 1031.1 0
19:00 - 19:30 -0.4 0.1 -0.7 73 0.0 1.8 10 7.9 1031.7 0
19:30 - 20:00 -0.3 0.1 -0.8 72 0.0 3.2 0 10.1 1031.9 0
20:00 - 20:30 0.0 0.5 -0.6 69 0.0 3.2 352 9.7 1031.9 0
20:30 - 21:00 -1.1 -0.5 -1.6 73 0.0 1.4 60 6.1 1032.5 0
21:00 - 21:30 -1.5 -1.1 -1.7 76 0.0 2.5 355 6.1 1032.7 0
21:30 - 22:00 -2.1 -1.7 -2.3 79 0.0 1.8 350 7.6 1033.2 0
22:00 - 22:30 -2.1 -1.8 -2.4 80 0.0 2.5 348 5.8 1033.4 0
22:30 - 23:00 -2.5 -2.3 -2.8 82 0.0 2.2 344 5.0 1033.5 0

Les dades en taronja només han passat un control de qualitat automàtic. Resta pendent la seva validació definitiva.